Chanute, KS

3:57 PM CST on February 20, 2017 (GMT -0600)
Casa Bravo | | Change Station

Elev 998 ft 37.67 °N, 95.47 °W | Updated 27 seconds ago

Mostly Cloudy
Mostly Cloudy
63.9 °F
Feels Like 63.9 °F
N
2.0
Wind Variable Wind from SW

Today
High -- | Low -- °F
--% Chance of Precip.
Yesterday
High -- | Low -- °F
Precip. -- in
Pressure 29.86 in
Visibility 10.0 miles
Clouds Mostly Cloudy 3000 ft
Dew Point 55 °F
Humidity 74%
Rainfall 0.02 in
Snow Depth Not available.
7:04 AM 6:06 PM
Waning Crescent, 31% visible
METAR KCNU 202152Z AUTO 21017G22KT 10SM BKN030 18/11 A2988 RMK AO2 SLP111 T01780111 $
Pressure 29.86 in
Visibility 10.0 miles
Clouds Mostly Cloudy 3000 ft
Dew Point 55 °F
Humidity 74%
Rainfall 0.02 in
Snow Depth Not available.
7:04 AM 6:06 PM
Waning Crescent, 31% visible
METAR KCNU 202152Z AUTO 21017G22KT 10SM BKN030 18/11 A2988 RMK AO2 SLP111 T01780111 $

Get Your Daily Forecast Email!

Thanks for signing up!

Be on the lookout for a verification email in your inbox.

You'll start receiving the daily forecast at 8 AM.

×

10-Day Weather Forecast

Almanac

Astronomy

Feb. 20, 2017 Rise Set
Actual Time
Civil Twilight
Nautical Twilight
Astronomical Twilight
Moon
Length of Visible Light
Length of Day
Tomorrow will be .
, % of the Moon is Illuminated

Today's Extremes

State Highs State Lows

Community

WunderPhotos

Upload Photos

1,962,540 photos uploaded!

WunderBlog® & News

Nearby

Air Quality

  Air Quality AQ Index Pollutant
Not available.

Snow Depth

Station Depth Elevation

Earthquake Activity

City Distance Mag. Time & Date
Minimum magnitude displayed is 2.5.

Coastal Water Temperatures

Place Temperature

Stations

Nearby Weather Stations

Station Location Temp. Windchill Dew Point Humidity Wind Precip. Elev Updated Type
                   

Watches & Warnings

There are currently no watches in effect.